Time;durP1;ratioP1;P1;durP2;ratioP2;P2;SDS_P1;SDS_P2;PMS_P1;PMS_P2;Temp;Humidity;BMP_temperature;BMP_pressure;BME280_temperature;BME280_humidity;BME280_pressure;Samples;Min_cycle;Max_cycle;Signal;HPM_P1;HPM_P2
2023/04/24 00:02:06;;;;;;;4.38;2.45;;;;;;;15.05;46.94;98700.75;5014243;28;20035;-77
2023/04/24 00:04:33;;;;;;;7.60;2.90;;;;;;;14.93;47.03;98689.63;4998321;28;20397;-77
2023/04/24 00:06:59;;;;;;;4.10;2.30;;;;;;;14.96;47.02;98689.34;4997815;28;20396;-77
2023/04/24 00:09:25;;;;;;;7.50;2.80;;;;;;;14.98;47.22;98694.44;4981681;28;20064;-77
2023/04/24 00:11:51;;;;;;;4.05;2.25;;;;;;;14.96;47.26;98688.47;4997827;28;20136;-77
2023/04/24 00:14:17;;;;;;;3.97;2.33;;;;;;;14.94;46.98;98696.53;4997687;28;20444;-77
2023/04/24 00:16:42;;;;;;;9.40;2.60;;;;;;;14.91;47.02;98686.31;4980777;28;20034;-77
2023/04/24 00:19:08;;;;;;;3.97;2.63;;;;;;;14.89;47.25;98682.16;4997359;28;20486;-77
2023/04/24 00:21:33;;;;;;;5.68;2.65;;;;;;;14.84;46.97;98683.44;4997360;28;20120;-77
2023/04/24 00:23:59;;;;;;;4.28;2.35;;;;;;;14.84;47.29;98685.22;4997899;28;20084;-77
2023/04/24 00:26:24;;;;;;;4.25;2.35;;;;;;;14.82;47.25;98684.56;4998030;28;20036;-77
2023/04/24 00:28:50;;;;;;;3.95;2.33;;;;;;;14.80;47.39;98684.72;4997786;28;20531;-77
2023/04/24 00:31:15;;;;;;;6.60;2.55;;;;;;;14.78;47.37;98680.56;4997278;28;20187;-77
2023/04/24 00:33:41;;;;;;;5.00;2.55;;;;;;;14.75;47.45;98678.22;5013866;28;20030;-78
2023/04/24 00:36:07;;;;;;;7.82;2.65;;;;;;;14.73;47.38;98673.09;4981388;28;20037;-78
2023/04/24 00:38:32;;;;;;;4.50;2.47;;;;;;;14.71;47.49;98674.25;5012880;28;20409;-77
2023/04/24 00:40:58;;;;;;;5.40;2.38;;;;;;;14.68;47.47;98675.34;4996278;28;20034;-77
2023/04/24 00:43:23;;;;;;;4.10;2.25;;;;;;;14.68;47.31;98670.09;4980867;28;20060;-77
2023/04/24 00:45:49;;;;;;;6.45;2.70;;;;;;;14.67;47.52;98667.63;5012829;28;20497;-77
2023/04/24 00:48:14;;;;;;;6.25;2.35;;;;;;;14.64;47.44;98663.47;4981090;28;20029;-78
2023/04/24 00:50:40;;;;;;;4.55;2.47;;;;;;;14.62;47.48;98660.97;4996908;28;20481;-77
2023/04/24 00:53:06;;;;;;;5.18;2.65;;;;;;;14.55;47.51;98654.63;4997562;28;20053;-76
2023/04/24 00:55:31;;;;;;;4.38;2.38;;;;;;;14.58;47.36;98658.75;4996657;28;20037;-78
2023/04/24 00:57:57;;;;;;;5.95;2.40;;;;;;;14.55;47.56;98659.88;4980382;28;20034;-77
2023/04/24 01:00:22;;;;;;;3.83;2.50;;;;;;;14.53;47.63;98658.38;4996015;28;20030;-77
2023/04/24 01:02:48;;;;;;;4.97;2.60;;;;;;;14.51;47.66;98663.75;4996029;28;20033;-77
2023/04/24 01:05:17;;;;;;;3.85;2.22;;;;;;;14.50;47.44;98664.75;4995881;28;20033;-77
2023/04/24 01:07:45;;;;;;;3.53;2.15;;;;;;;14.47;47.77;98657.16;4996737;28;20515;-77
2023/04/24 01:10:11;;;;;;;5.50;2.40;;;;;;;14.45;48.00;98659.09;4980750;28;20077;-77
2023/04/24 01:12:37;;;;;;;4.18;2.15;;;;;;;14.41;47.59;98655.91;4980412;28;20038;-77
2023/04/24 01:15:03;;;;;;;10.68;2.28;;;;;;;14.41;47.81;98655.09;4996436;28;20026;-77
2023/04/24 01:17:29;;;;;;;4.65;2.40;;;;;;;14.39;47.65;98659.66;5010801;28;20033;-77
2023/04/24 01:19:56;;;;;;;7.40;2.65;;;;;;;14.38;47.85;98658.84;4993248;28;20026;-76
2023/04/24 01:22:22;;;;;;;8.23;2.70;;;;;;;14.34;47.68;98661.88;4994766;28;20037;-76
2023/04/24 01:24:47;;;;;;;5.13;2.15;;;;;;;14.31;47.76;98655.16;4960635;28;20046;-77
2023/04/24 01:27:13;;;;;;;3.65;2.30;;;;;;;14.33;47.75;98657.59;4976354;28;20050;-77
2023/04/24 01:29:38;;;;;;;8.45;2.60;;;;;;;14.25;47.85;98645.22;4976963;28;20485;-76
2023/04/24 01:32:04;;;;;;;6.22;2.45;;;;;;;14.27;47.92;98653.75;4976998;28;20038;-77
2023/04/24 01:34:30;;;;;;;6.22;2.13;;;;;;;14.24;47.70;98654.84;4976582;28;20101;-76
2023/04/24 01:36:56;;;;;;;4.78;2.50;;;;;;;14.23;47.67;98653.22;4976760;28;20037;-77
2023/04/24 01:39:23;;;;;;;4.90;2.75;;;;;;;14.17;48.03;98639.81;4977086;28;20136;-77
2023/04/24 01:41:50;;;;;;;5.20;2.40;;;;;;;14.21;47.84;98641.19;4992870;28;20089;-77
2023/04/24 01:44:15;;;;;;;3.72;2.20;;;;;;;14.19;47.82;98637.91;4976156;28;20498;-77
2023/04/24 01:46:41;;;;;;;6.20;2.42;;;;;;;14.18;48.04;98637.06;4976259;28;20045;-77
2023/04/24 01:49:06;;;;;;;7.43;2.67;;;;;;;14.12;48.04;98635.00;4976544;28;20109;-77
2023/04/24 01:51:32;;;;;;;8.55;2.60;;;;;;;14.13;48.08;98635.84;4976852;28;20034;-77
2023/04/24 01:53:57;;;;;;;7.07;2.53;;;;;;;14.10;47.95;98634.31;4976587;28;20030;-77
2023/04/24 01:56:23;;;;;;;4.13;2.22;;;;;;;14.08;47.84;98633.63;4976589;28;20034;-77
2023/04/24 01:58:49;;;;;;;6.35;2.28;;;;;;;14.05;47.70;98631.28;4959430;28;20031;-77
2023/04/24 02:01:18;;;;;;;5.78;2.30;;;;;;;14.04;48.11;98632.25;4992269;28;20034;-78
2023/04/24 02:03:44;;;;;;;3.83;2.30;;;;;;;14.03;48.11;98641.94;4992619;28;20058;-77
2023/04/24 02:06:09;;;;;;;4.55;2.55;;;;;;;14.02;48.10;98644.69;4976444;28;20062;-77
2023/04/24 02:08:35;;;;;;;3.28;2.30;;;;;;;13.97;48.17;98636.44;4959872;28;20050;-77
2023/04/24 02:11:02;;;;;;;7.43;2.50;;;;;;;13.98;48.23;98640.69;4975716;28;20069;-78
2023/04/24 02:13:27;;;;;;;3.67;2.50;;;;;;;13.94;48.10;98630.47;4976552;28;20034;-77
2023/04/24 02:15:53;;;;;;;5.57;2.38;;;;;;;13.97;48.26;98637.25;4960142;28;20022;-77
2023/04/24 02:18:18;;;;;;;4.80;2.70;;;;;;;13.92;48.30;98621.09;4976179;28;20105;-78
2023/04/24 02:20:44;;;;;;;7.80;2.42;;;;;;;13.95;48.08;98628.69;4975274;28;20065;-77
2023/04/24 02:23:09;;;;;;;5.85;2.60;;;;;;;13.92;48.20;98621.91;4975923;28;20038;-77
2023/04/24 02:25:35;;;;;;;6.07;2.50;;;;;;;13.89;48.31;98614.34;4975713;28;20030;-77
2023/04/24 02:28:00;;;;;;;7.57;2.42;;;;;;;13.89;48.54;98621.38;4975742;28;20062;-78
2023/04/24 02:30:26;;;;;;;4.25;2.25;;;;;;;13.87;48.26;98613.66;4959799;28;20096;-78
2023/04/24 02:32:51;;;;;;;4.07;2.25;;;;;;;13.87;48.52;98615.47;4993152;28;20030;-77
2023/04/24 02:35:17;;;;;;;8.18;2.50;;;;;;;13.80;48.23;98615.16;4975922;28;20029;-77
2023/04/24 02:37:42;;;;;;;3.15;2.20;;;;;;;13.83;48.54;98627.19;4959651;28;20421;-77
2023/04/24 02:40:08;;;;;;;5.38;2.60;;;;;;;13.83;48.47;98632.44;4993411;28;20030;-77
2023/04/24 02:42:34;;;;;;;4.57;2.47;;;;;;;13.77;48.42;98622.50;4991077;28;20022;-77
2023/04/24 02:45:00;;;;;;;4.47;2.20;;;;;;;13.79;48.59;98624.03;4992132;28;20440;-77
2023/04/24 02:47:25;;;;;;;3.45;2.47;;;;;;;13.75;48.49;98620.84;4959178;28;20037;-77
2023/04/24 02:49:51;;;;;;;5.85;2.30;;;;;;;13.76;48.39;98616.44;4992424;28;20034;-77
2023/04/24 02:52:16;;;;;;;8.38;2.60;;;;;;;13.72;48.71;98605.38;4976149;28;20038;-77
2023/04/24 02:54:42;;;;;;;4.03;2.45;;;;;;;13.70;48.60;98609.94;4959079;28;20484;-77
2023/04/24 02:57:08;;;;;;;3.42;2.25;;;;;;;13.72;48.83;98617.66;4975374;28;20045;-78
2023/04/24 02:59:33;;;;;;;5.53;2.45;;;;;;;13.69;49.03;98607.47;4958683;28;20417;-77
2023/04/24 03:01:59;;;;;;;4.63;2.38;;;;;;;13.68;48.61;98609.25;4975099;28;20092;-78
2023/04/24 03:04:25;;;;;;;3.88;2.53;;;;;;;13.69;48.62;98612.72;4958914;28;20382;-77
2023/04/24 03:06:52;;;;;;;3.90;2.40;;;;;;;13.64;48.79;98601.81;4975081;28;20586;-78
2023/04/24 03:09:18;;;;;;;4.60;2.65;;;;;;;13.66;48.77;98608.59;4975591;28;20409;-77
2023/04/24 03:11:44;;;;;;;5.18;2.47;;;;;;;13.65;48.81;98606.09;4991550;28;20504;-77
2023/04/24 03:14:09;;;;;;;4.43;2.35;;;;;;;13.64;48.87;98607.06;4959132;28;20023;-77
2023/04/24 03:16:35;;;;;;;4.35;2.40;;;;;;;13.64;48.99;98617.56;4975122;28;20632;-77
2023/04/24 03:19:00;;;;;;;3.88;2.10;;;;;;;13.64;48.99;98609.69;4975291;28;20041;-77
2023/04/24 03:21:26;;;;;;;4.53;2.30;;;;;;;13.64;48.60;98612.31;4975637;28;20405;-79
2023/04/24 03:23:52;;;;;;;6.70;2.53;;;;;;;13.66;49.14;98615.59;4957626;28;20053;-79
2023/04/24 03:26:17;;;;;;;4.60;2.60;;;;;;;13.99;64.19;98616.13;4992590;28;20034;-84
2023/04/24 03:28:43;;;;;;;3.35;2.45;;;;;;;14.21;64.23;98617.56;4959192;28;20034;-84
2023/04/24 03:31:08;;;;;;;7.20;2.70;;;;;;;14.38;63.57;98626.50;4974883;28;20034;-79
2023/04/24 03:33:34;;;;;;;5.28;2.55;;;;;;;14.50;60.23;98629.75;4991996;28;20034;-76
2023/04/24 03:35:59;;;;;;;3.28;2.55;;;;;;;14.66;58.93;98624.75;4975557;28;20030;-76
2023/04/24 03:38:25;;;;;;;7.53;3.00;;;;;;;14.84;57.55;98627.41;4974478;28;20030;-77
2023/04/24 03:40:50;;;;;;;4.13;2.70;;;;;;;15.07;56.12;98624.38;4992268;28;20031;-77
2023/04/24 03:43:16;;;;;;;7.57;2.70;;;;;;;15.36;54.86;98630.25;4975220;28;20061;-75
2023/04/24 03:45:41;;;;;;;6.15;3.25;;;;;;;15.67;53.57;98627.25;4990745;28;20066;-81
2023/04/24 03:48:07;;;;;;;5.20;3.03;;;;;;;16.12;54.06;98630.72;4975621;28;20065;-75
2023/04/24 03:50:33;;;;;;;6.32;2.97;;;;;;;16.49;52.66;98634.03;4992495;28;20093;-77
2023/04/24 03:52:58;;;;;;;9.35;2.90;;;;;;;16.88;50.96;98621.19;4974261;28;20038;-77
2023/04/24 03:55:24;;;;;;;4.22;3.08;;;;;;;17.30;49.06;98615.03;4991414;28;20031;-78
2023/04/24 03:57:49;;;;;;;7.50;3.22;;;;;;;17.74;47.61;98619.16;4989794;28;20034;-82
2023/04/24 04:00:15;;;;;;;5.93;2.97;;;;;;;18.24;45.90;98620.78;4992881;28;20075;-84
2023/04/24 04:02:41;;;;;;;10.32;3.47;;;;;;;18.75;44.02;98615.13;4993994;28;20133;-83
2023/04/24 04:05:07;;;;;;;5.97;3.40;;;;;;;19.22;42.34;98618.72;4976299;28;20097;-85
2023/04/24 04:07:33;;;;;;;4.40;2.90;;;;;;;19.76;40.81;98630.22;4995241;28;20074;-84
2023/04/24 04:09:59;;;;;;;7.82;3.20;;;;;;;20.30;39.20;98634.53;4995812;28;20038;-79
2023/04/24 04:12:24;;;;;;;7.55;3.20;;;;;;;20.86;37.77;98634.91;4995823;28;20030;-80
2023/04/24 04:14:50;;;;;;;6.65;2.92;;;;;;;21.44;36.45;98634.09;4977801;28;20109;-80
2023/04/24 04:17:15;;;;;;;6.05;2.72;;;;;;;22.03;35.24;98638.31;4961946;28;20046;-81
2023/04/24 04:19:41;;;;;;;7.00;2.75;;;;;;;22.65;34.05;98635.84;4978174;28;20038;-81
2023/04/24 04:22:07;;;;;;;4.85;2.78;;;;;;;23.19;32.60;98636.88;4994504;28;20082;-81
2023/04/24 04:24:37;;;;;;;4.72;2.53;;;;;;;23.74;31.60;98644.75;4978053;28;20511;-82
2023/04/24 04:27:06;;;;;;;6.63;2.70;;;;;;;24.27;30.56;98628.72;4981541;28;20411;-82
2023/04/24 04:29:32;;;;;;;7.88;2.83;;;;;;;24.79;29.64;98633.31;4977121;28;20046;-82
2023/04/24 04:31:58;;;;;;;5.15;2.70;;;;;;;25.35;28.79;98632.66;4993938;28;20096;-82
2023/04/24 04:34:23;;;;;;;7.68;2.60;;;;;;;25.88;27.90;98638.63;4977737;28;20105;-82
2023/04/24 04:36:50;;;;;;;7.68;2.22;;;;;;;26.40;27.26;98631.16;4977338;28;20038;-82
2023/04/24 04:39:16;;;;;;;4.75;2.40;;;;;;;26.93;26.20;98636.97;4995087;28;20030;-83
2023/04/24 04:41:42;;;;;;;6.88;2.55;;;;;;;27.49;25.46;98643.03;4977695;28;20044;-82
2023/04/24 04:44:08;;;;;;;9.27;2.50;;;;;;;27.08;25.99;98654.25;4994525;28;20038;-82
2023/04/24 04:46:34;;;;;;;8.32;2.60;;;;;;;26.68;26.28;98645.94;4978396;28;20042;-81
2023/04/24 04:49:01;;;;;;;7.35;3.00;;;;;;;27.57;25.43;98651.53;4977687;28;20069;-82
2023/04/24 04:51:26;;;;;;;10.05;2.33;;;;;;;28.26;24.17;98644.84;4961398;28;20379;-82
2023/04/24 04:53:52;;;;;;;14.48;2.47;;;;;;;27.40;25.33;98648.69;4994746;28;20041;-82
2023/04/24 04:56:18;;;;;;;10.35;2.90;;;;;;;26.41;26.40;98645.34;4977231;28;20134;-81
2023/04/24 04:58:43;;;;;;;14.50;3.03;;;;;;;25.56;27.21;98639.50;4977427;28;20037;-81
2023/04/24 05:01:09;;;;;;;8.88;3.30;;;;;;;24.81;28.26;98642.78;4993305;28;20517;-83
2023/04/24 05:03:36;;;;;;;11.73;3.60;;;;;;;24.11;28.88;98647.84;4946322;28;20113;-84
2023/04/24 05:06:02;;;;;;;16.27;3.40;;;;;;;23.44;29.97;98645.13;4977718;28;20140;-79
2023/04/24 05:08:27;;;;;;;17.55;4.03;;;;;;;22.89;30.80;98647.81;4978806;28;20085;-81
2023/04/24 05:10:53;;;;;;;23.42;3.67;;;;;;;22.46;33.60;98651.50;4965441;28;20062;-74
2023/04/24 05:13:19;;;;;;;18.30;4.80;;;;;;;22.13;33.67;98651.25;4994529;28;20434;-75
2023/04/24 05:15:45;;;;;;;20.20;4.63;;;;;;;21.88;33.83;98656.16;4961503;28;20042;-74
2023/04/24 05:18:10;;;;;;;15.65;4.30;;;;;;;21.69;34.23;98661.13;4983501;28;20038;-73
2023/04/24 05:20:35;;;;;;;21.90;4.78;;;;;;;21.52;34.53;98655.22;4967522;28;20417;-74
2023/04/24 05:23:01;;;;;;;15.75;5.40;;;;;;;22.36;33.24;98669.63;4960661;28;20030;-74
2023/04/24 05:25:27;;;;;;;12.82;4.50;;;;;;;24.17;30.41;98660.34;4965569;28;20061;-74
2023/04/24 05:27:53;;;;;;;25.30;4.22;;;;;;;25.42;28.62;98657.47;4969894;28;20072;-76
2023/04/24 05:30:19;;;;;;;18.85;4.45;;;;;;;26.56;27.24;98663.75;4984830;28;20195;-73
2023/04/24 05:32:45;;;;;;;10.43;4.72;;;;;;;27.53;25.75;98650.38;4979358;28;20132;-73
2023/04/24 05:35:10;;;;;;;20.48;4.40;;;;;;;28.51;24.89;98666.91;4979801;28;20193;-74
2023/04/24 05:37:36;;;;;;;14.60;4.05;;;;;;;29.38;23.47;98670.53;4996198;28;20030;-74
2023/04/24 05:40:01;;;;;;;12.88;4.15;;;;;;;30.12;22.84;98661.53;4996071;28;20030;-77
2023/04/24 05:42:27;;;;;;;12.40;4.05;;;;;;;30.77;21.65;98653.00;5012875;28;20030;-73
2023/04/24 05:44:54;;;;;;;15.85;4.00;;;;;;;31.30;20.83;98651.44;4979415;28;20554;-74
2023/04/24 05:47:21;;;;;;;8.70;3.28;;;;;;;31.81;20.36;98659.19;5010327;28;20038;-76
2023/04/24 05:49:47;;;;;;;11.60;3.22;;;;;;;32.34;19.92;98656.63;4961120;28;20472;-76
2023/04/24 05:52:13;;;;;;;8.60;3.00;;;;;;;32.68;19.39;98652.75;4975972;28;20046;-81
2023/04/24 05:54:38;;;;;;;11.95;3.45;;;;;;;31.48;20.04;98650.25;4960373;28;20121;-77
2023/04/24 05:57:07;;;;;;;17.70;3.50;;;;;;;31.34;20.34;98643.66;4976303;28;20046;-77
2023/04/24 05:59:35;;;;;;;10.23;3.17;;;;;;;30.82;21.15;98643.09;4977054;28;20064;-78
2023/04/24 06:02:00;;;;;;;;;;;;;;;30.61;20.77;98652.00;4960625;28;20030;-75
2023/04/24 06:04:25;;;;;;;10.60;3.05;;;;;;;30.63;21.31;98641.78;4976345;28;19917;-74
2023/04/24 06:06:55;;;;;;;9.38;2.90;;;;;;;31.26;21.44;98646.81;4975746;28;20058;-76
2023/04/24 06:09:24;;;;;;;15.85;3.63;;;;;;;31.63;21.03;98649.63;4994663;28;20425;-81
2023/04/24 06:11:52;;;;;;;11.80;3.67;;;;;;;32.01;20.05;98645.06;4992495;28;20035;-79
2023/04/24 06:14:18;;;;;;;14.27;3.40;;;;;;;32.38;19.57;98638.81;4977921;28;20089;-83
2023/04/24 06:16:43;;;;;;;11.20;3.17;;;;;;;32.85;18.91;98645.25;4993677;28;20409;-85
2023/04/24 06:19:09;;;;;;;10.45;3.53;;;;;;;32.06;19.30;98638.88;4980687;28;20043;-83
2023/04/24 06:21:34;;;;;;;18.00;3.95;;;;;;;31.24;19.69;98641.69;4982506;28;20113;-82
2023/04/24 06:24:00;;;;;;;7.80;3.15;;;;;;;30.49;20.32;98639.47;4960535;28;20050;-84
2023/04/24 06:26:26;;;;;;;9.82;3.35;;;;;;;29.70;21.71;98639.63;4960572;28;20058;-84
2023/04/24 06:28:53;;;;;;;11.00;3.67;;;;;;;28.99;23.01;98648.81;4977663;28;20355;-79
2023/04/24 06:31:19;;;;;;;11.45;2.90;;;;;;;28.41;23.40;98649.75;4958950;28;20046;-78
2023/04/24 06:33:45;;;;;;;12.60;3.75;;;;;;;27.82;24.25;98642.50;4992357;28;20030;-81
2023/04/24 06:36:12;;;;;;;11.10;3.45;;;;;;;27.38;24.31;98644.63;4975264;28;20057;-77
2023/04/24 06:38:37;;;;;;;6.47;3.28;;;;;;;26.99;24.91;98638.72;4974288;28;20042;-79
2023/04/24 06:41:04;;;;;;;10.27;3.28;;;;;;;26.66;25.52;98642.63;4959994;28;20129;-76
2023/04/24 06:43:31;;;;;;;13.18;3.22;;;;;;;26.38;25.51;98646.63;4993316;28;20026;-79
2023/04/24 06:45:57;;;;;;;14.65;3.20;;;;;;;27.01;24.80;98650.03;4975570;28;20026;-77
2023/04/24 06:48:23;;;;;;;12.60;3.45;;;;;;;26.94;25.22;98654.66;4991167;28;20044;-78
2023/04/24 06:50:49;;;;;;;12.32;3.17;;;;;;;27.22;24.65;98646.88;4959259;28;20413;-77
2023/04/24 06:53:15;;;;;;;10.07;2.75;;;;;;;26.97;25.28;98655.03;4974427;28;20038;-78
2023/04/24 06:55:40;;;;;;;7.75;3.10;;;;;;;26.78;25.22;98656.91;4975775;28;20141;-76
2023/04/24 06:58:06;;;;;;;8.55;2.90;;;;;;;26.81;25.27;98651.09;4973335;28;20076;-80
2023/04/24 07:00:31;;;;;;;6.47;2.75;;;;;;;26.86;25.08;98648.56;4973073;28;20046;-81
2023/04/24 07:02:57;;;;;;;6.05;2.65;;;;;;;27.80;23.98;98644.59;4974330;28;20038;-78
2023/04/24 07:05:23;;;;;;;6.72;2.60;;;;;;;28.38;23.86;98644.84;4958113;28;20144;-79
2023/04/24 07:07:50;;;;;;;11.75;2.83;;;;;;;28.83;22.98;98646.91;4958279;28;20494;-78
2023/04/24 07:10:15;;;;;;;12.03;2.50;;;;;;;29.12;22.25;98646.91;4974696;28;20397;-77
2023/04/24 07:12:41;;;;;;;7.20;2.40;;;;;;;29.61;21.78;98635.69;4974455;28;20376;-77
2023/04/24 07:15:08;;;;;;;4.63;2.40;;;;;;;30.00;21.53;98646.53;4975585;28;20026;-77
2023/04/24 07:17:34;;;;;;;12.02;2.40;;;;;;;30.39;21.06;98647.41;4975473;28;20025;-75
2023/04/24 07:20:00;;;;;;;9.43;2.47;;;;;;;30.70;20.96;98636.22;4975667;28;20042;-76
2023/04/24 07:22:25;;;;;;;8.70;2.47;;;;;;;31.07;20.64;98636.38;4975802;28;20163;-77
2023/04/24 07:24:51;;;;;;;6.55;2.10;;;;;;;31.39;20.09;98641.00;4975510;28;20505;-78
2023/04/24 07:27:16;;;;;;;11.48;2.40;;;;;;;31.71;19.96;98638.34;4959123;28;20037;-77
2023/04/24 07:29:42;;;;;;;10.95;2.78;;;;;;;31.99;19.98;98639.09;4959110;28;20466;-79
2023/04/24 07:32:08;;;;;;;8.85;2.00;;;;;;;32.22;20.00;98632.50;4959292;28;20033;-76
2023/04/24 07:34:33;;;;;;;7.72;2.25;;;;;;;32.45;19.37;98628.59;4975618;28;20031;-77
2023/04/24 07:36:59;;;;;;;7.13;2.28;;;;;;;32.63;19.26;98630.03;4959204;28;20062;-77
2023/04/24 07:39:25;;;;;;;8.20;2.78;;;;;;;32.79;19.04;98630.91;4975166;28;20053;-76
2023/04/24 07:41:50;;;;;;;4.03;1.92;;;;;;;32.98;18.81;98633.13;4977375;28;20462;-76
2023/04/24 07:44:16;;;;;;;8.38;2.40;;;;;;;33.12;18.59;98639.63;4979055;28;20026;-77
2023/04/24 07:46:41;;;;;;;8.57;2.28;;;;;;;33.26;18.45;98641.88;4962897;28;20019;-76
2023/04/24 07:49:07;;;;;;;5.10;1.67;;;;;;;33.33;18.32;98637.81;4978772;28;20038;-77
2023/04/24 07:51:37;;;;;;;8.00;2.33;;;;;;;33.43;18.68;98642.44;4978485;28;20035;-76
2023/04/24 07:54:04;;;;;;;9.77;2.10;;;;;;;33.55;18.23;98631.31;4979400;28;20571;-77
2023/04/24 07:56:31;;;;;;;10.07;2.20;;;;;;;33.57;18.16;98636.47;4962750;28;20026;-77
2023/04/24 07:58:56;;;;;;;8.05;1.95;;;;;;;33.63;18.17;98636.19;4978742;28;20082;-81
2023/04/24 08:01:21;;;;;;;9.73;2.40;;;;;;;33.69;18.51;98635.09;4962814;28;20062;-76
2023/04/24 08:03:47;;;;;;;6.90;2.53;;;;;;;33.79;18.24;98636.22;4962436;28;20105;-77
2023/04/24 08:06:13;;;;;;;5.95;2.35;;;;;;;33.81;18.43;98642.16;4962283;28;20153;-76
2023/04/24 08:08:38;;;;;;;8.50;2.20;;;;;;;33.79;18.19;98657.88;4962457;28;20450;-75
2023/04/24 08:11:04;;;;;;;6.65;2.38;;;;;;;33.65;18.50;98646.75;4995745;28;20397;-76
2023/04/24 08:13:29;;;;;;;5.05;2.10;;;;;;;33.54;18.22;98644.06;4978390;28;20042;-77
2023/04/24 08:15:56;;;;;;;8.88;2.10;;;;;;;33.55;18.52;98650.28;4962245;28;20065;-75
2023/04/24 08:18:22;;;;;;;6.72;2.33;;;;;;;33.31;18.83;98653.50;4978346;28;20464;-77
2023/04/24 08:20:48;;;;;;;4.93;2.22;;;;;;;33.35;18.79;98654.59;4994196;28;20033;-79
2023/04/24 08:23:13;;;;;;;10.02;2.22;;;;;;;33.42;18.65;98640.78;4961526;28;20409;-79
2023/04/24 08:25:39;;;;;;;7.55;2.30;;;;;;;33.43;19.09;98645.13;4961655;28;20413;-81
2023/04/24 08:28:05;;;;;;;9.23;2.53;;;;;;;33.49;18.88;98644.03;4978086;28;20048;-77
2023/04/24 08:30:31;;;;;;;6.10;2.33;;;;;;;33.56;18.93;98638.38;4961088;28;20102;-77
2023/04/24 08:32:57;;;;;;;4.70;2.25;;;;;;;33.63;18.61;98629.97;4978117;28;20034;-77
2023/04/24 08:35:23;;;;;;;5.45;2.30;;;;;;;33.67;18.61;98640.00;4977940;28;20501;-80
2023/04/24 08:37:48;;;;;;;6.13;2.00;;;;;;;33.76;18.94;98623.22;4961812;28;20035;-78
2023/04/24 08:40:15;;;;;;;11.45;2.33;;;;;;;33.83;18.77;98630.00;4978485;28;20030;-79
2023/04/24 08:42:44;;;;;;;7.37;2.30;;;;;;;33.82;18.65;98609.41;4978231;28;20066;-78
2023/04/24 08:45:11;;;;;;;4.90;2.20;;;;;;;33.80;18.58;98608.88;4977317;28;20042;-77
2023/04/24 08:47:38;;;;;;;5.72;2.25;;;;;;;33.77;18.96;98604.00;4978234;28;20530;-78
2023/04/24 08:50:07;;;;;;;8.13;2.25;;;;;;;33.80;19.11;98614.28;4977475;28;20042;-81
2023/04/24 08:52:34;;;;;;;6.57;2.17;;;;;;;33.80;19.26;98597.25;4994305;28;20061;-77
2023/04/24 08:55:03;;;;;;;7.03;2.35;;;;;;;33.79;19.07;98601.03;4962017;28;20513;-78
2023/04/24 08:57:29;;;;;;;6.65;2.25;;;;;;;33.76;18.94;98599.66;4961341;28;20118;-75
2023/04/24 08:59:54;;;;;;;5.32;2.40;;;;;;;33.66;18.89;98596.97;4977355;28;20109;-76
2023/04/24 09:02:20;;;;;;;7.85;2.42;;;;;;;33.57;18.81;98599.38;4993524;28;20067;-77
2023/04/24 09:04:46;;;;;;;8.25;2.50;;;;;;;33.43;19.10;98601.03;4977304;28;20111;-78
2023/04/24 09:07:11;;;;;;;6.90;2.10;;;;;;;33.30;19.39;98594.25;4977233;28;20065;-78
2023/04/24 09:09:37;;;;;;;7.38;2.38;;;;;;;33.18;19.17;98587.22;4977090;28;20041;-78
2023/04/24 09:12:03;;;;;;;8.27;2.47;;;;;;;33.02;19.32;98588.25;4961321;28;20042;-79
2023/04/24 09:14:31;;;;;;;7.13;2.13;;;;;;;32.84;19.71;98581.44;4977417;28;20033;-77
2023/04/24 09:16:56;;;;;;;4.80;2.40;;;;;;;32.80;20.08;98589.28;4977316;28;20081;-78
2023/04/24 09:19:22;;;;;;;5.80;2.65;;;;;;;32.76;20.18;98580.06;4961248;28;20038;-79
2023/04/24 09:21:48;;;;;;;7.80;2.53;;;;;;;32.68;20.20;98579.81;4961462;28;20030;-80
2023/04/24 09:24:22;;;;;;;6.38;2.75;;;;;;;32.61;20.63;98574.63;4961543;28;20061;-79
2023/04/24 09:26:49;;;;;;;7.78;2.97;;;;;;;32.65;20.56;98581.13;4977242;28;20062;-79
2023/04/24 09:29:18;;;;;;;7.57;2.80;;;;;;;32.60;21.00;98571.09;4977454;28;20073;-77
2023/04/24 09:31:44;;;;;;;9.73;2.83;;;;;;;32.60;20.66;98578.38;4961095;28;20054;-78
2023/04/24 09:34:10;;;;;;;5.63;2.50;;;;;;;32.45;20.77;98573.72;4977183;28;20113;-80
2023/04/24 09:36:43;;;;;;;7.43;2.63;;;;;;;32.24;21.09;98570.94;4960965;28;20125;-81
2023/04/24 09:39:10;;;;;;;4.25;2.30;;;;;;;32.12;21.10;98566.84;4977068;28;20426;-78
2023/04/24 09:42:13;;;;;;;6.35;2.33;;;;;;;31.98;21.34;98569.19;4960749;28;20386;-82
2023/04/24 09:44:39;;;;;;;5.55;2.10;;;;;;;31.60;21.52;98576.50;4937611;29;20602;-78
2023/04/24 09:47:04;;;;;;;7.05;2.20;;;;;;;31.44;21.71;98579.03;4936607;29;20040;-78
2023/04/24 09:49:33;;;;;;;5.15;2.20;;;;;;;31.31;21.83;98568.66;4905592;29;20040;-81
2023/04/24 09:52:08;;;;;;;7.10;2.30;;;;;;;31.19;22.13;98566.97;4922298;29;20519;-79
2023/04/24 09:54:36;;;;;;;7.50;2.25;;;;;;;31.09;21.98;98566.03;4921411;29;20491;-78
2023/04/24 09:57:07;;;;;;;;;;;;;;;30.93;21.94;98560.50;4907065;29;20082;-80
2023/04/24 09:59:33;;;;;;;6.32;2.10;;;;;;;30.82;22.12;98559.56;4954841;29;20317;-83
2023/04/24 10:01:59;;;;;;;5.53;2.30;;;;;;;30.72;22.13;98561.34;4907687;29;20665;-80
2023/04/24 10:04:27;;;;;;;3.78;2.40;;;;;;;30.47;22.83;98554.59;4905124;29;20043;-83
2023/04/24 10:06:54;;;;;;;6.47;2.55;;;;;;;30.13;23.20;98555.50;4921157;29;20066;-78
2023/04/24 10:09:24;;;;;;;5.03;2.53;;;;;;;29.86;23.30;98549.22;4904652;29;20043;-78
2023/04/24 10:11:50;;;;;;;7.65;2.42;;;;;;;29.54;23.54;98542.56;4953022;29;20302;-80
2023/04/24 10:14:17;;;;;;;8.38;2.60;;;;;;;29.33;23.97;98544.09;4951888;29;20126;-81
2023/04/24 10:16:43;;;;;;;6.22;2.50;;;;;;;29.13;24.17;98541.88;4975124;28;20039;-77
2023/04/24 10:19:10;;;;;;;7.20;2.60;;;;;;;29.07;24.99;98540.13;4942787;28;20030;-80
2023/04/24 10:21:42;;;;;;;7.22;2.53;;;;;;;29.01;24.76;98546.47;4943697;28;20398;-78
2023/04/24 10:24:07;;;;;;;5.68;2.40;;;;;;;29.01;24.80;98533.84;4977571;28;20042;-78
2023/04/24 10:26:33;;;;;;;5.07;2.63;;;;;;;29.17;24.57;98534.94;4960361;28;20030;-80
2023/04/24 10:29:00;;;;;;;6.20;2.63;;;;;;;29.12;24.92;98521.41;4960941;28;20034;-79
2023/04/24 10:31:27;;;;;;;5.47;2.92;;;;;;;29.29;24.80;98529.53;4975138;28;20034;-78
2023/04/24 10:33:52;;;;;;;7.53;2.83;;;;;;;29.32;24.67;98537.09;4975787;28;20399;-79
2023/04/24 10:36:18;;;;;;;5.13;2.60;;;;;;;29.33;24.70;98527.16;4959221;28;20037;-79
2023/04/24 10:38:44;;;;;;;5.68;2.67;;;;;;;29.26;24.97;98521.94;4959500;28;20030;-77
2023/04/24 10:41:15;;;;;;;6.35;2.63;;;;;;;29.23;24.82;98517.84;4975793;28;20208;-77
2023/04/24 10:43:41;;;;;;;6.97;2.67;;;;;;;29.05;25.21;98520.78;4961334;28;20069;-77
2023/04/24 10:46:08;;;;;;;7.85;2.47;;;;;;;29.06;25.15;98530.44;4959283;28;20120;-77
2023/04/24 10:48:33;;;;;;;8.63;3.03;;;;;;;29.00;25.33;98520.66;4976161;28;20030;-78
2023/04/24 10:51:00;;;;;;;8.65;2.75;;;;;;;28.86;25.31;98518.28;4959898;28;20034;-77
2023/04/24 10:53:31;;;;;;;6.00;2.80;;;;;;;28.61;25.65;98521.31;4992018;28;20041;-79
2023/04/24 10:55:58;;;;;;;6.07;2.60;;;;;;;28.46;25.76;98515.63;4976511;28;20034;-78
2023/04/24 10:58:25;;;;;;;4.90;2.53;;;;;;;28.37;26.13;98511.69;4944540;28;20038;-78
2023/04/24 11:00:58;;;;;;;7.88;3.00;;;;;;;28.21;26.18;98515.94;4959720;28;20034;-80
2023/04/24 11:03:27;;;;;;;7.63;2.70;;;;;;;28.11;26.25;98511.19;4943863;28;20466;-79
2023/04/24 11:06:08;;;;;;;6.88;2.70;;;;;;;27.96;26.54;98514.38;4975946;28;20093;-80
2023/04/24 11:08:44;;;;;;;8.95;3.15;;;;;;;27.84;26.66;98505.47;4975673;28;20145;-78
2023/04/24 11:11:17;;;;;;;4.82;2.97;;;;;;;27.75;27.04;98505.84;4959844;28;20022;-79
2023/04/24 11:13:55;;;;;;;3.45;2.65;;;;;;;27.62;27.32;98493.47;4974807;28;20078;-79
2023/04/24 11:16:21;;;;;;;7.32;2.72;;;;;;;27.55;27.71;98495.47;4991336;28;20035;-78
2023/04/24 11:18:53;;;;;;;10.68;2.95;;;;;;;27.45;27.55;98481.81;4996903;28;20026;-80
2023/04/24 11:21:21;;;;;;;5.82;2.53;;;;;;;27.32;28.00;98492.78;4964495;28;20474;-77
2023/04/24 11:23:46;;;;;;;6.38;2.80;;;;;;;27.25;27.91;98484.84;4947354;28;20058;-80
2023/04/24 11:26:24;;;;;;;4.93;2.80;;;;;;;27.16;28.02;98491.56;4979544;28;20023;-80
2023/04/24 11:28:50;;;;;;;8.15;3.25;;;;;;;27.05;27.83;98480.59;4979847;28;20566;-78